createdAt,value
2018-08-18T00:00:54.119Z,0.00
2018-08-18T00:01:54.034Z,0.00
2018-08-18T00:02:53.956Z,0.00
2018-08-18T00:03:53.848Z,0.00
2018-08-18T00:04:53.761Z,0.00
2018-08-18T00:05:53.669Z,0.00
2018-08-18T00:06:53.579Z,0.00
2018-08-18T00:07:53.507Z,0.00
2018-08-18T00:08:53.415Z,0.00
2018-08-18T00:09:53.312Z,0.00
2018-08-18T00:10:53.218Z,0.00
2018-08-18T00:11:53.132Z,0.00
2018-08-18T00:12:53.058Z,0.00
2018-08-18T00:13:52.951Z,0.00
2018-08-18T00:14:52.862Z,0.00
2018-08-18T00:15:52.770Z,0.00
2018-08-18T00:16:52.683Z,0.00
2018-08-18T00:17:52.608Z,0.00
2018-08-18T00:18:52.499Z,0.00
2018-08-18T00:19:52.413Z,0.00
2018-08-18T00:20:52.324Z,0.00
2018-08-18T00:21:52.229Z,0.00
2018-08-18T00:22:52.159Z,0.00
2018-08-18T00:23:52.055Z,0.00
2018-08-18T00:24:51.961Z,0.00
2018-08-18T00:25:51.876Z,0.00
2018-08-18T00:26:51.782Z,0.00
2018-08-18T00:27:51.711Z,0.00
2018-08-18T00:28:51.608Z,0.00
2018-08-18T00:29:51.516Z,0.00
2018-08-18T00:30:51.428Z,0.00
2018-08-18T00:31:51.338Z,0.00
2018-08-18T00:32:51.247Z,0.00
2018-08-18T00:33:51.176Z,0.00
2018-08-18T00:34:51.068Z,0.00
2018-08-18T00:35:50.976Z,0.00
2018-08-18T00:36:50.891Z,0.00
2018-08-18T00:37:50.800Z,0.00
2018-08-18T00:38:50.724Z,0.00
2018-08-18T00:39:50.621Z,0.00
2018-08-18T00:40:50.529Z,0.00
2018-08-18T00:41:50.440Z,0.00
2018-08-18T00:42:50.353Z,0.00
2018-08-18T00:43:50.276Z,0.00
2018-08-18T00:44:50.171Z,0.00
2018-08-18T00:45:50.083Z,0.00
2018-08-18T00:46:49.991Z,0.00
2018-08-18T00:47:49.907Z,0.00
2018-08-18T00:48:49.832Z,0.00
2018-08-18T00:49:49.724Z,0.00
2018-08-18T00:50:49.633Z,0.00
2018-08-18T00:51:49.542Z,0.00
2018-08-18T00:52:49.454Z,0.00
2018-08-18T00:53:49.385Z,0.00
2018-08-18T00:54:49.275Z,0.00
2018-08-18T00:55:49.187Z,0.00
2018-08-18T00:56:49.101Z,0.00
2018-08-18T00:57:49.004Z,0.00
2018-08-18T00:58:48.932Z,0.00
2018-08-18T00:59:48.828Z,0.00
2018-08-18T01:00:48.736Z,0.00
2018-08-18T01:01:48.689Z,0.00
2018-08-18T01:02:48.560Z,0.00
2018-08-18T01:03:48.487Z,0.00
2018-08-18T01:04:48.380Z,0.00
2018-08-18T01:05:48.289Z,0.00
2018-08-18T01:06:48.302Z,0.00
2018-08-18T01:07:48.108Z,0.00
2018-08-18T01:08:48.036Z,0.00
2018-08-18T01:09:47.929Z,0.00
2018-08-18T01:10:47.897Z,0.00
2018-08-18T01:11:47.851Z,0.00
2018-08-18T01:12:47.780Z,0.00
2018-08-18T01:13:47.767Z,0.00
2018-08-18T01:14:47.505Z,0.00
2018-08-18T01:15:47.402Z,0.00
2018-08-18T01:16:47.302Z,0.00
2018-08-18T01:17:47.214Z,0.00
2018-08-18T01:18:47.141Z,0.00
2018-08-18T01:19:47.038Z,0.00
2018-08-18T01:20:47.047Z,0.00
2018-08-18T01:21:46.858Z,0.00
2018-08-18T01:22:46.768Z,0.00
2018-08-18T01:23:46.695Z,0.00
2018-08-18T01:24:46.588Z,0.00
2018-08-18T01:25:46.500Z,0.00
2018-08-18T01:26:46.409Z,0.00
2018-08-18T01:27:46.419Z,0.00
2018-08-18T01:28:46.246Z,0.00
2018-08-18T01:29:46.145Z,0.00
2018-08-18T01:30:46.049Z,0.00
2018-08-18T01:31:45.962Z,0.00
2018-08-18T01:32:45.871Z,0.00
2018-08-18T01:33:45.797Z,0.00
2018-08-18T01:34:45.789Z,0.00
2018-08-18T01:35:45.605Z,0.00
2018-08-18T01:36:45.529Z,0.00
2018-08-18T01:37:45.424Z,0.00
2018-08-18T01:38:45.349Z,0.00
2018-08-18T01:39:45.242Z,0.00
2018-08-18T01:40:45.157Z,0.00
2018-08-18T01:41:45.069Z,0.00
2018-08-18T01:42:44.977Z,0.00
2018-08-18T01:43:44.964Z,0.00
2018-08-18T01:44:44.797Z,0.00
2018-08-18T01:45:44.710Z,0.00
2018-08-18T01:46:44.619Z,0.00
2018-08-18T01:47:44.537Z,0.00
2018-08-18T01:48:44.454Z,0.00
2018-08-18T01:49:44.350Z,0.00
2018-08-18T01:50:44.262Z,0.00
2018-08-18T01:51:44.176Z,0.00
2018-08-18T01:52:44.083Z,0.00
2018-08-18T01:53:44.009Z,0.00
2018-08-18T01:54:43.902Z,0.00
2018-08-18T01:55:43.818Z,0.00
2018-08-18T01:56:43.725Z,0.00
2018-08-18T01:57:43.639Z,0.00
2018-08-18T01:58:43.561Z,0.00
2018-08-18T01:59:43.456Z,0.00
2018-08-18T02:00:43.367Z,0.00
2018-08-18T02:01:43.279Z,0.00
2018-08-18T02:02:43.190Z,0.00
2018-08-18T02:03:43.118Z,0.00
2018-08-18T02:04:43.011Z,0.00
2018-08-18T02:05:42.922Z,0.00
2018-08-18T02:06:42.831Z,0.00
2018-08-18T02:07:42.740Z,0.00
2018-08-18T02:08:42.656Z,0.00
2018-08-18T02:09:42.580Z,0.00
2018-08-18T02:10:42.477Z,0.00
2018-08-18T02:11:42.381Z,0.00
2018-08-18T02:12:42.300Z,0.00
2018-08-18T02:13:42.223Z,0.00
2018-08-18T02:14:42.116Z,0.00
2018-08-18T02:15:42.026Z,0.00
2018-08-18T02:16:41.943Z,0.00
2018-08-18T02:17:41.957Z,0.00
2018-08-18T02:18:41.758Z,0.00
2018-08-18T02:19:41.683Z,0.00
2018-08-18T02:20:41.578Z,0.00
2018-08-18T02:21:41.490Z,0.00
2018-08-18T02:22:41.399Z,0.00
2018-08-18T02:23:41.313Z,0.00
2018-08-18T02:24:41.342Z,0.00
2018-08-18T02:25:41.133Z,0.00
2018-08-18T02:26:41.045Z,0.00
2018-08-18T02:27:40.962Z,0.00
2018-08-18T02:28:40.868Z,0.00
2018-08-18T02:29:40.794Z,0.00
2018-08-18T02:30:40.685Z,0.00
2018-08-18T02:31:40.702Z,0.00
2018-08-18T02:32:40.508Z,0.00
2018-08-18T02:33:40.419Z,0.00
2018-08-18T02:34:40.342Z,0.00
2018-08-18T02:35:40.240Z,0.00
2018-08-18T02:36:40.151Z,0.00
2018-08-18T02:37:40.061Z,0.00
2018-08-18T02:38:40.074Z,0.00
2018-08-18T02:39:39.902Z,0.00
2018-08-18T02:40:39.791Z,0.00
2018-08-18T02:41:39.705Z,0.00
2018-08-18T02:42:39.614Z,0.00
2018-08-18T02:43:39.523Z,0.00
2018-08-18T02:44:39.454Z,0.00
2018-08-18T02:45:39.444Z,0.00
2018-08-18T02:46:39.256Z,0.00
2018-08-18T02:47:39.164Z,0.00
2018-08-18T02:48:39.077Z,0.00
2018-08-18T02:49:39.007Z,0.00
2018-08-18T02:50:38.900Z,0.00
2018-08-18T02:51:38.808Z,0.00
2018-08-18T02:52:38.722Z,0.00
2018-08-18T02:53:38.630Z,0.00
2018-08-18T02:54:38.555Z,0.00
2018-08-18T02:55:38.453Z,0.00
2018-08-18T02:56:38.361Z,0.00
2018-08-18T02:57:38.272Z,0.00
2018-08-18T02:58:38.184Z,0.00
2018-08-18T02:59:38.112Z,0.00
2018-08-18T03:00:38.004Z,0.00
2018-08-18T03:01:37.915Z,0.00
2018-08-18T03:02:37.823Z,0.00
2018-08-18T03:03:37.735Z,0.00
2018-08-18T03:04:37.664Z,0.00
2018-08-18T03:05:37.555Z,0.00
2018-08-18T03:06:37.467Z,0.00
2018-08-18T03:07:37.379Z,0.00
2018-08-18T03:08:37.287Z,0.00
2018-08-18T03:09:37.215Z,0.00
2018-08-18T03:10:37.107Z,0.00
2018-08-18T03:11:37.022Z,0.00
2018-08-18T03:12:36.932Z,0.00
2018-08-18T03:13:36.840Z,0.00
2018-08-18T03:14:36.769Z,0.00
2018-08-18T03:15:36.660Z,0.00
2018-08-18T03:16:36.569Z,0.00
2018-08-18T03:17:36.480Z,0.00
2018-08-18T03:18:36.396Z,0.00
2018-08-18T03:19:36.325Z,0.00
2018-08-18T03:20:36.213Z,0.00
2018-08-18T03:21:36.126Z,0.00
2018-08-18T03:22:36.036Z,0.00
2018-08-18T03:23:35.945Z,0.00
2018-08-18T03:24:35.869Z,0.00
2018-08-18T03:25:35.766Z,0.00
2018-08-18T03:26:35.674Z,0.00
2018-08-18T03:27:35.583Z,0.00
2018-08-18T03:28:35.496Z,0.00
2018-08-18T03:29:35.423Z,0.00
2018-08-18T03:30:35.317Z,0.00
2018-08-18T03:31:35.231Z,4.00
2018-08-18T03:32:35.154Z,4.00
2018-08-18T03:33:35.048Z,4.00
2018-08-18T03:34:34.973Z,0.00
2018-08-18T03:35:34.869Z,4.00
2018-08-18T03:36:34.775Z,4.00
2018-08-18T03:37:34.687Z,4.00
2018-08-18T03:38:34.599Z,8.00
2018-08-18T03:39:34.521Z,8.00
2018-08-18T03:40:34.418Z,8.00
2018-08-18T03:41:34.328Z,8.00
2018-08-18T03:42:34.235Z,12.00
2018-08-18T03:43:34.149Z,16.00
2018-08-18T03:44:34.074Z,20.00
2018-08-18T03:45:33.968Z,24.00
2018-08-18T03:46:33.885Z,24.00
2018-08-18T03:47:33.792Z,28.00
2018-08-18T03:48:33.700Z,28.00
2018-08-18T03:49:33.625Z,36.00
2018-08-18T03:50:33.516Z,40.00
2018-08-18T03:51:33.430Z,48.00
2018-08-18T03:52:33.423Z,48.00
2018-08-18T03:53:33.273Z,56.00
2018-08-18T03:54:33.176Z,60.00
2018-08-18T03:55:33.072Z,68.00
2018-08-18T03:56:32.983Z,72.00
2018-08-18T03:57:32.896Z,76.00
2018-08-18T03:58:32.800Z,84.00
2018-08-18T03:59:32.727Z,100.00
2018-08-18T04:00:32.619Z,116.00
2018-08-18T04:01:32.588Z,116.00
2018-08-18T04:02:32.441Z,124.00
2018-08-18T04:03:32.351Z,136.00
2018-08-18T04:04:32.276Z,148.00
2018-08-18T04:05:32.174Z,164.00
2018-08-18T04:06:32.080Z,176.00
2018-08-18T04:07:31.990Z,192.00
2018-08-18T04:08:32.001Z,212.00
2018-08-18T04:09:31.819Z,240.00
2018-08-18T04:10:31.741Z,268.00
2018-08-18T04:11:31.627Z,272.00
2018-08-18T04:12:31.540Z,300.00
2018-08-18T04:13:31.455Z,332.00
2018-08-18T04:14:31.376Z,344.00
2018-08-18T04:15:31.394Z,368.00
2018-08-18T04:16:31.183Z,388.00
2018-08-18T04:17:31.092Z,416.00
2018-08-18T04:18:31.002Z,432.00
2018-08-18T04:19:30.916Z,472.00
2018-08-18T04:20:30.839Z,488.00
2018-08-18T04:21:30.732Z,492.00
2018-08-18T04:22:30.744Z,516.00
2018-08-18T04:23:30.556Z,572.00
2018-08-18T04:24:30.467Z,608.00
2018-08-18T04:25:30.406Z,640.00
2018-08-18T04:26:30.283Z,700.00
2018-08-18T04:27:30.194Z,764.00
2018-08-18T04:28:30.104Z,784.00
2018-08-18T04:29:30.123Z,820.00
2018-08-18T04:30:29.939Z,796.00
2018-08-18T04:31:29.838Z,808.00
2018-08-18T04:32:29.748Z,800.00
2018-08-18T04:33:29.660Z,864.00
2018-08-18T04:34:29.568Z,964.00
2018-08-18T04:35:29.507Z,980.00
2018-08-18T04:36:29.510Z,1052.00
2018-08-18T04:37:29.299Z,1128.00
2018-08-18T04:38:29.209Z,1152.00
2018-08-18T04:39:29.116Z,1140.00
2018-08-18T04:40:29.048Z,1204.00
2018-08-18T04:41:28.939Z,1244.00
2018-08-18T04:42:28.851Z,1320.00
2018-08-18T04:43:28.861Z,1356.00
2018-08-18T04:44:28.668Z,1424.00
2018-08-18T04:45:28.600Z,1500.00
2018-08-18T04:46:28.491Z,1572.00
2018-08-18T04:47:28.403Z,1496.00
2018-08-18T04:48:28.310Z,1468.00
2018-08-18T04:49:28.231Z,1552.00
2018-08-18T04:50:28.280Z,1676.00
2018-08-18T04:51:28.044Z,1732.00
2018-08-18T04:52:27.953Z,1772.00
2018-08-18T04:53:27.863Z,2052.00
2018-08-18T04:54:27.773Z,1876.00
2018-08-18T04:55:27.701Z,1800.00
2018-08-18T04:56:27.594Z,1752.00
2018-08-18T04:57:27.624Z,1844.00
2018-08-18T04:58:27.416Z,2024.00
2018-08-18T04:59:27.396Z,2172.00
2018-08-18T05:00:27.252Z,2460.00
2018-08-18T05:01:27.148Z,2824.00
2018-08-18T05:02:27.055Z,3056.00
2018-08-18T05:03:26.978Z,3048.00
2018-08-18T05:04:26.977Z,3308.00
2018-08-18T05:05:26.805Z,3436.00
2018-08-18T05:06:26.699Z,3416.00
2018-08-18T05:07:26.607Z,3356.00
2018-08-18T05:08:26.521Z,3792.00
2018-08-18T05:09:26.432Z,3232.00
2018-08-18T05:10:26.355Z,3408.00
2018-08-18T05:11:26.348Z,3804.00
2018-08-18T05:12:26.161Z,4032.00
2018-08-18T05:13:26.070Z,4308.00
2018-08-18T05:14:25.987Z,4688.00
2018-08-18T05:15:25.906Z,5020.00
2018-08-18T05:16:25.804Z,5720.00
2018-08-18T05:17:25.716Z,5388.00
2018-08-18T05:18:25.622Z,5512.00
2018-08-18T05:19:25.641Z,5264.00
2018-08-18T05:20:25.462Z,4924.00
2018-08-18T05:21:25.356Z,5552.00
2018-08-18T05:22:25.264Z,6560.00
2018-08-18T05:23:25.175Z,7216.00
2018-08-18T05:24:25.092Z,8336.00
2018-08-18T05:25:25.114Z,7156.00
2018-08-18T05:26:24.908Z,7564.00
2018-08-18T05:27:24.814Z,7856.00
2018-08-18T05:28:24.727Z,7488.00
2018-08-18T05:29:24.640Z,8104.00
2018-08-18T05:30:24.566Z,8116.00
2018-08-18T05:31:24.462Z,7776.00
2018-08-18T05:32:24.474Z,6572.00
2018-08-18T05:33:24.284Z,7256.00
2018-08-18T05:34:24.199Z,7224.00
2018-08-18T05:35:24.120Z,6248.00
2018-08-18T05:36:24.037Z,7320.00
2018-08-18T05:37:23.929Z,7224.00
2018-08-18T05:38:23.835Z,7504.00
2018-08-18T05:39:23.747Z,7260.00
2018-08-18T05:40:23.675Z,6852.00
2018-08-18T05:41:23.568Z,7556.00
2018-08-18T05:42:23.482Z,7452.00
2018-08-18T05:43:23.392Z,6936.00
2018-08-18T05:44:23.304Z,8116.00
2018-08-18T05:45:23.230Z,7248.00
2018-08-18T05:46:23.122Z,7324.00
2018-08-18T05:47:23.042Z,6248.00
2018-08-18T05:48:22.944Z,5544.00
2018-08-18T05:49:22.854Z,5780.00
2018-08-18T05:50:22.801Z,6280.00
2018-08-18T05:51:22.676Z,5924.00
2018-08-18T05:52:22.591Z,5772.00
2018-08-18T05:53:22.502Z,5620.00
2018-08-18T05:54:22.411Z,5984.00
2018-08-18T05:55:22.321Z,6460.00
2018-08-18T05:56:22.249Z,6744.00
2018-08-18T05:57:22.145Z,7064.00
2018-08-18T05:58:22.056Z,6772.00
2018-08-18T05:59:21.964Z,6692.00
2018-08-18T06:00:21.878Z,7068.00
2018-08-18T06:01:21.802Z,7436.00
2018-08-18T06:02:21.698Z,7964.00
2018-08-18T06:03:21.611Z,8724.00
2018-08-18T06:04:21.522Z,12612.00
2018-08-18T06:05:21.434Z,12604.00
2018-08-18T06:06:21.359Z,12544.00
2018-08-18T06:07:21.255Z,11832.00
2018-08-18T06:08:21.163Z,11932.00
2018-08-18T06:09:21.075Z,12500.00
2018-08-18T06:10:20.994Z,12048.00
2018-08-18T06:11:20.916Z,12072.00
2018-08-18T06:12:20.810Z,12536.00
2018-08-18T06:13:20.720Z,12776.00
2018-08-18T06:14:20.630Z,12420.00
2018-08-18T06:15:20.544Z,12520.00
2018-08-18T06:16:20.468Z,13308.00
2018-08-18T06:17:20.369Z,13608.00
2018-08-18T06:18:20.279Z,13756.00
2018-08-18T06:19:20.187Z,13668.00
2018-08-18T06:20:20.103Z,13668.00
2018-08-18T06:21:20.029Z,13888.00
2018-08-18T06:22:19.922Z,14920.00
2018-08-18T06:23:19.833Z,14680.00
2018-08-18T06:24:19.745Z,13316.00
2018-08-18T06:25:19.658Z,12224.00
2018-08-18T06:26:19.637Z,15052.00
2018-08-18T06:27:19.481Z,15444.00
2018-08-18T06:28:19.393Z,15376.00
2018-08-18T06:29:19.304Z,14396.00
2018-08-18T06:30:19.213Z,14804.00
2018-08-18T06:31:19.144Z,15520.00
2018-08-18T06:32:19.040Z,14248.00
2018-08-18T06:33:18.950Z,15540.00
2018-08-18T06:34:18.861Z,15040.00
2018-08-18T06:35:18.778Z,14984.00
2018-08-18T06:36:18.702Z,15532.00
2018-08-18T06:37:18.598Z,16324.00
2018-08-18T06:38:18.509Z,17904.00
2018-08-18T06:39:18.425Z,17220.00
2018-08-18T06:40:18.334Z,17348.00
2018-08-18T06:41:18.269Z,17664.00
2018-08-18T06:42:18.155Z,19232.00
2018-08-18T06:43:18.085Z,22752.00
2018-08-18T06:44:17.982Z,24704.00
2018-08-18T06:45:17.893Z,22880.00
2018-08-18T06:46:17.821Z,22368.00
2018-08-18T06:47:17.718Z,23968.00
2018-08-18T06:48:17.628Z,28736.00
2018-08-18T06:49:17.543Z,29376.00
2018-08-18T06:50:17.455Z,27648.00
2018-08-18T06:51:17.384Z,26432.00
2018-08-18T06:52:17.278Z,24352.00
2018-08-18T06:53:17.191Z,23392.00
2018-08-18T06:54:17.146Z,22048.00
2018-08-18T06:55:17.161Z,16868.00
2018-08-18T06:56:16.949Z,14628.00
2018-08-18T06:57:16.847Z,11156.00
2018-08-18T06:58:16.756Z,11388.00
2018-08-18T06:59:16.671Z,11260.00
2018-08-18T07:00:16.590Z,9896.00
2018-08-18T07:01:16.516Z,10196.00
2018-08-18T07:02:16.412Z,10992.00
2018-08-18T07:03:16.327Z,12124.00
2018-08-18T07:04:16.251Z,15380.00
2018-08-18T07:05:16.157Z,12468.00
2018-08-18T07:06:16.083Z,12276.00
2018-08-18T07:07:15.981Z,12988.00
2018-08-18T07:08:15.900Z,14372.00
2018-08-18T07:09:15.911Z,15928.00
2018-08-18T07:10:15.724Z,25984.00
2018-08-18T07:11:15.658Z,26880.00
2018-08-18T07:12:15.550Z,26976.00
2018-08-18T07:13:15.467Z,26656.00
2018-08-18T07:14:15.379Z,25376.00
2018-08-18T07:15:15.287Z,24928.00
2018-08-18T07:16:15.307Z,21376.00
2018-08-18T07:17:15.117Z,22112.00
2018-08-18T07:18:15.032Z,17636.00
2018-08-18T07:19:14.948Z,20960.00
2018-08-18T07:20:14.859Z,28832.00
2018-08-18T07:21:14.794Z,26080.00
2018-08-18T07:22:14.693Z,15180.00
2018-08-18T07:23:14.703Z,33248.00
2018-08-18T07:24:14.517Z,17404.00
2018-08-18T07:25:14.431Z,20096.00
2018-08-18T07:26:14.362Z,17188.00
2018-08-18T07:27:14.256Z,33088.00
2018-08-18T07:28:14.240Z,35616.00
2018-08-18T07:29:14.088Z,33280.00
2018-08-18T07:30:14.107Z,32896.00
2018-08-18T07:31:13.937Z,33376.00
2018-08-18T07:32:13.836Z,33280.00
2018-08-18T07:33:13.747Z,32544.00
2018-08-18T07:34:13.660Z,32928.00
2018-08-18T07:35:13.576Z,33088.00
2018-08-18T07:36:13.507Z,33024.00
2018-08-18T07:37:13.650Z,32416.00
2018-08-18T07:38:13.321Z,33728.00
2018-08-18T07:39:13.236Z,34368.00
2018-08-18T07:40:13.153Z,34592.00
2018-08-18T07:41:13.075Z,33728.00
2018-08-18T07:42:13.004Z,34816.00
2018-08-18T07:43:12.898Z,34368.00
2018-08-18T07:44:12.913Z,33472.00
2018-08-18T07:45:12.733Z,33536.00
2018-08-18T07:46:12.670Z,33696.00
2018-08-18T07:47:12.581Z,33472.00
2018-08-18T07:48:12.561Z,33824.00
2018-08-18T07:49:12.398Z,34880.00
2018-08-18T07:50:12.313Z,34592.00
2018-08-18T07:51:12.334Z,34112.00
2018-08-18T07:52:12.160Z,34496.00
2018-08-18T07:53:12.091Z,34720.00
2018-08-18T07:54:11.976Z,35936.00
2018-08-18T07:55:11.894Z,39136.00
2018-08-18T07:56:11.813Z,47968.00
2018-08-18T07:57:11.745Z,63552.00
2018-08-18T07:58:11.745Z,62592.00
2018-08-18T07:59:11.564Z,66272.00
2018-08-18T08:00:11.502Z,68416.00
2018-08-18T08:01:11.399Z,61888.00
2018-08-18T08:02:11.332Z,55712.00
2018-08-18T08:03:11.235Z,60192.00
2018-08-18T08:04:11.149Z,61760.00
2018-08-18T08:05:11.097Z,62784.00
2018-08-18T08:06:10.987Z,72064.00
2018-08-18T08:07:10.923Z,75904.00
2018-08-18T08:08:10.825Z,75872.00
2018-08-18T08:09:10.737Z,76928.00
2018-08-18T08:10:10.657Z,73664.00
2018-08-18T08:11:10.575Z,67808.00
2018-08-18T08:12:10.509Z,59776.00
2018-08-18T08:13:10.428Z,56352.00
2018-08-18T08:14:10.328Z,58784.00
2018-08-18T08:15:10.247Z,61728.00
2018-08-18T08:16:10.166Z,59712.00
2018-08-18T08:17:10.102Z,53760.00
2018-08-18T08:18:10.059Z,46880.00
2018-08-18T08:19:09.919Z,45472.00
2018-08-18T08:20:09.840Z,45952.00
2018-08-18T08:21:09.761Z,47232.00
2018-08-18T08:22:09.693Z,51136.00
2018-08-18T08:23:09.618Z,54016.00
2018-08-18T08:24:09.514Z,54432.00
2018-08-18T08:25:09.565Z,55008.00
2018-08-18T08:26:09.353Z,55136.00
2018-08-18T08:27:09.291Z,52192.00
2018-08-18T08:28:09.188Z,59264.00
2018-08-18T08:29:09.110Z,60736.00
2018-08-18T08:30:09.030Z,60224.00
2018-08-18T08:31:08.948Z,56992.00
2018-08-18T08:32:08.882Z,50688.00
2018-08-18T08:33:08.789Z,45792.00
2018-08-18T08:34:08.712Z,49088.00
2018-08-18T08:35:08.632Z,55136.00
2018-08-18T08:36:08.546Z,44960.00
2018-08-18T08:37:08.483Z,58624.00
2018-08-18T08:38:08.387Z,56224.00
2018-08-18T08:39:08.417Z,64864.00
2018-08-18T08:40:08.223Z,78816.00
2018-08-18T08:41:08.143Z,72736.00
2018-08-18T08:42:08.078Z,60832.00
2018-08-18T08:43:07.991Z,77376.00
2018-08-18T08:44:07.900Z,80448.00
2018-08-18T08:45:07.821Z,88640.00
2018-08-18T08:46:07.859Z,120224.00
2018-08-18T08:47:07.675Z,127040.00
2018-08-18T08:48:07.580Z,126944.00
2018-08-18T08:49:07.508Z,112800.00
2018-08-18T08:50:07.417Z,108544.00
2018-08-18T08:51:07.342Z,96608.00
2018-08-18T08:52:07.278Z,76640.00
2018-08-18T08:53:07.182Z,44384.00
2018-08-18T08:54:07.102Z,41856.00
2018-08-18T08:55:07.024Z,46400.00
2018-08-18T08:56:06.945Z,95904.00
2018-08-18T08:57:06.881Z,95872.00
2018-08-18T08:58:06.786Z,90144.00
2018-08-18T08:59:06.701Z,76704.00
2018-08-18T09:00:06.623Z,95328.00
2018-08-18T09:01:06.545Z,70624.00
2018-08-18T09:02:06.482Z,59552.00
2018-08-18T09:03:06.386Z,37568.00
2018-08-18T09:04:06.307Z,59648.00
2018-08-18T09:05:06.226Z,35520.00
2018-08-18T09:06:06.249Z,33184.00
2018-08-18T09:07:06.090Z,33632.00
2018-08-18T09:08:05.989Z,47136.00
2018-08-18T09:09:05.913Z,50368.00
2018-08-18T09:10:05.829Z,86016.00
2018-08-18T09:11:05.752Z,93536.00
2018-08-18T09:12:05.690Z,91680.00
2018-08-18T09:13:05.697Z,95360.00
2018-08-18T09:14:05.512Z,79264.00
2018-08-18T09:15:05.432Z,99424.00
2018-08-18T09:16:05.354Z,70880.00
2018-08-18T09:17:05.279Z,95840.00
2018-08-18T09:18:05.211Z,71072.00
2018-08-18T09:19:05.115Z,76288.00
2018-08-18T09:20:05.036Z,80928.00
2018-08-18T09:21:04.956Z,60032.00
2018-08-18T09:22:04.908Z,87456.00
2018-08-18T09:23:04.800Z,85344.00
2018-08-18T09:24:04.719Z,79008.00
2018-08-18T09:25:04.637Z,83360.00
2018-08-18T09:26:04.640Z,78304.00
2018-08-18T09:27:04.499Z,76640.00
2018-08-18T09:28:04.401Z,74496.00
2018-08-18T09:29:04.326Z,76832.00
2018-08-18T09:30:04.242Z,78784.00
2018-08-18T09:31:04.165Z,77920.00
2018-08-18T09:32:04.084Z,84960.00
2018-08-18T09:33:04.138Z,86816.00
2018-08-18T09:34:03.924Z,77280.00
2018-08-18T09:35:03.847Z,87680.00
2018-08-18T09:36:03.769Z,86016.00
2018-08-18T09:37:03.691Z,83584.00
2018-08-18T09:38:03.628Z,81888.00
2018-08-18T09:39:03.534Z,83424.00
2018-08-18T09:40:03.550Z,81600.00
2018-08-18T09:41:03.380Z,49216.00
2018-08-18T09:42:03.300Z,49056.00
2018-08-18T09:43:03.232Z,52096.00
2018-08-18T09:44:03.136Z,36704.00
2018-08-18T09:45:03.067Z,32448.00
2018-08-18T09:46:02.978Z,31040.00
2018-08-18T09:47:03.006Z,34496.00
2018-08-18T09:48:02.841Z,30528.00
2018-08-18T09:49:02.745Z,30144.00
2018-08-18T09:50:02.665Z,31584.00
2018-08-18T09:51:02.583Z,28160.00
2018-08-18T09:52:02.504Z,28000.00
2018-08-18T09:53:02.450Z,28448.00
2018-08-18T09:54:02.440Z,33376.00
2018-08-18T09:55:02.266Z,32544.00
2018-08-18T09:56:02.188Z,42656.00
2018-08-18T09:57:02.118Z,48832.00
2018-08-18T09:58:02.039Z,31808.00
2018-08-18T09:59:01.944Z,30912.00
2018-08-18T10:00:01.863Z,29568.00
2018-08-18T10:01:01.883Z,30336.00
2018-08-18T10:02:01.703Z,34816.00
2018-08-18T10:03:01.641Z,57312.00
2018-08-18T10:04:01.546Z,26656.00
2018-08-18T10:05:01.463Z,26080.00
2018-08-18T10:06:01.381Z,26144.00
2018-08-18T10:07:01.302Z,23680.00
2018-08-18T10:08:01.354Z,23040.00
2018-08-18T10:09:01.138Z,22368.00
2018-08-18T10:10:01.058Z,22080.00
2018-08-18T10:11:00.980Z,21824.00
2018-08-18T10:12:00.897Z,22176.00
2018-08-18T10:13:00.831Z,22528.00
2018-08-18T10:14:00.734Z,23296.00
2018-08-18T10:15:00.753Z,24544.00
2018-08-18T10:16:00.573Z,26752.00
2018-08-18T10:17:00.489Z,28480.00
2018-08-18T10:18:00.425Z,30464.00
2018-08-18T10:19:00.339Z,32128.00
2018-08-18T10:20:00.251Z,34112.00
2018-08-18T10:21:00.165Z,41312.00
2018-08-18T10:22:00.088Z,49472.00
2018-08-18T10:23:00.015Z,60704.00
2018-08-18T10:23:59.919Z,42848.00
2018-08-18T10:24:59.836Z,39968.00
2018-08-18T10:25:59.760Z,40672.00
2018-08-18T10:26:59.672Z,45664.00
2018-08-18T10:27:59.608Z,68512.00
2018-08-18T10:28:59.509Z,91328.00
2018-08-18T10:29:59.431Z,75104.00
2018-08-18T10:30:59.346Z,84896.00
2018-08-18T10:31:59.264Z,86048.00
2018-08-18T10:32:59.199Z,67264.00
2018-08-18T10:33:59.101Z,53632.00
2018-08-18T10:34:59.021Z,90848.00
2018-08-18T10:35:58.938Z,50912.00
2018-08-18T10:36:58.863Z,85120.00
2018-08-18T10:37:58.794Z,80672.00
2018-08-18T10:38:58.694Z,89056.00
2018-08-18T10:39:58.618Z,89472.00
2018-08-18T10:40:58.539Z,31104.00
2018-08-18T10:41:58.496Z,26432.00
2018-08-18T10:42:58.393Z,23872.00
2018-08-18T10:43:58.294Z,22912.00
2018-08-18T10:44:58.214Z,23808.00
2018-08-18T10:45:58.137Z,42464.00
2018-08-18T10:46:58.056Z,29088.00
2018-08-18T10:47:57.996Z,40032.00
2018-08-18T10:48:57.894Z,54240.00
2018-08-18T10:49:57.820Z,83840.00
2018-08-18T10:50:57.737Z,36736.00
2018-08-18T10:51:57.652Z,61984.00
2018-08-18T10:52:57.589Z,73184.00
2018-08-18T10:53:57.492Z,35488.00
2018-08-18T10:54:57.413Z,52256.00
2018-08-18T10:55:57.332Z,52960.00
2018-08-18T10:56:57.252Z,48800.00
2018-08-18T10:57:57.190Z,39008.00
2018-08-18T10:58:57.092Z,81376.00
2018-08-18T10:59:57.011Z,81920.00
2018-08-18T11:00:56.930Z,79040.00
2018-08-18T11:01:56.851Z,80928.00
2018-08-18T11:02:56.791Z,83040.00
2018-08-18T11:03:56.820Z,84448.00
2018-08-18T11:04:56.623Z,87168.00
2018-08-18T11:05:56.530Z,88768.00
2018-08-18T11:06:56.451Z,87392.00
2018-08-18T11:07:56.393Z,88768.00
2018-08-18T11:08:56.333Z,87712.00
2018-08-18T11:09:56.211Z,81568.00
2018-08-18T11:10:56.131Z,86496.00
2018-08-18T11:11:56.152Z,81856.00
2018-08-18T11:12:55.990Z,74496.00
2018-08-18T11:13:55.895Z,28128.00
2018-08-18T11:14:55.816Z,81184.00
2018-08-18T11:15:55.735Z,49504.00
2018-08-18T11:16:55.658Z,31968.00
2018-08-18T11:17:55.578Z,35712.00
2018-08-18T11:18:55.519Z,25792.00
2018-08-18T11:19:55.419Z,32288.00
2018-08-18T11:20:55.341Z,78272.00
2018-08-18T11:21:55.297Z,83680.00
2018-08-18T11:22:55.182Z,72416.00
2018-08-18T11:23:55.118Z,31840.00
2018-08-18T11:24:55.022Z,29152.00
2018-08-18T11:25:54.944Z,25312.00
2018-08-18T11:26:54.864Z,83712.00
2018-08-18T11:27:54.786Z,81248.00
2018-08-18T11:28:54.730Z,84320.00
2018-08-18T11:29:54.623Z,85408.00
2018-08-18T11:30:54.544Z,58560.00
2018-08-18T11:31:54.466Z,30368.00
2018-08-18T11:32:54.386Z,59328.00
2018-08-18T11:33:54.322Z,77024.00
2018-08-18T11:34:54.229Z,29152.00
2018-08-18T11:35:54.144Z,30720.00
2018-08-18T11:36:54.069Z,92416.00
2018-08-18T11:37:54.092Z,91872.00
2018-08-18T11:38:53.923Z,90464.00
2018-08-18T11:39:53.828Z,29280.00
2018-08-18T11:40:53.751Z,29344.00
2018-08-18T11:41:53.665Z,29600.00
2018-08-18T11:42:53.587Z,25152.00
2018-08-18T11:43:53.624Z,53696.00
2018-08-18T11:44:53.429Z,92160.00
2018-08-18T11:45:53.349Z,84192.00
2018-08-18T11:46:53.328Z,85376.00
2018-08-18T11:47:53.189Z,79744.00
2018-08-18T11:48:53.124Z,83680.00
2018-08-18T11:49:53.027Z,85728.00
2018-08-18T11:50:53.051Z,80864.00
2018-08-18T11:51:52.869Z,78592.00
2018-08-18T11:52:52.791Z,78336.00
2018-08-18T11:53:52.729Z,80032.00
2018-08-18T11:54:52.632Z,81184.00
2018-08-18T11:55:52.551Z,82848.00
2018-08-18T11:56:52.473Z,82912.00
2018-08-18T11:57:52.493Z,80064.00
2018-08-18T11:58:52.331Z,77280.00
2018-08-18T11:59:52.239Z,72192.00
2018-08-18T12:00:52.155Z,69568.00
2018-08-18T12:01:52.131Z,76000.00
2018-08-18T12:02:52.000Z,77664.00
2018-08-18T12:03:51.945Z,79296.00
2018-08-18T12:04:51.841Z,79104.00
2018-08-18T12:05:51.764Z,75552.00
2018-08-18T12:06:51.686Z,78368.00
2018-08-18T12:07:51.607Z,75168.00
2018-08-18T12:08:51.546Z,76352.00
2018-08-18T12:09:51.449Z,65440.00
2018-08-18T12:10:51.567Z,70880.00
2018-08-18T12:11:51.296Z,71072.00
2018-08-18T12:12:51.217Z,74912.00
2018-08-18T12:13:51.158Z,73440.00
2018-08-18T12:14:51.058Z,69088.00
2018-08-18T12:15:50.993Z,68160.00